UAII 190200Z 16003MPS 6000 NSC 18/02 Q1012 R28/0///70 NOSIG RMK QFE722/0962
QNH:(hPa/inHg/mmHg)1012 / 29.88 / 759
QFE:(hPa/inHg/mmHg)961 / 28.37 / 720
Temperature18
Dew Point2
Visibility6000
Weather
Cloud Cover
Transition Height5000 m./17800 ft.
Transition LevelFL200
SQUAWK